createdAt,value
2022-12-18T00:01:32.438Z,6.15
2022-12-18T00:04:02.523Z,6.20
2022-12-18T00:06:31.367Z,6.24
2022-12-18T00:09:00.327Z,6.26
2022-12-18T00:11:31.204Z,6.22
2022-12-18T00:14:00.826Z,6.13
2022-12-18T00:16:31.336Z,6.17
2022-12-18T00:19:00.948Z,6.18
2022-12-18T00:21:29.709Z,6.24
2022-12-18T00:23:58.110Z,6.25
2022-12-18T00:26:31.462Z,6.26
2022-12-18T00:29:07.238Z,6.09
2022-12-18T00:31:36.062Z,5.97
2022-12-18T00:34:04.546Z,6.11
2022-12-18T00:36:35.086Z,6.30
2022-12-18T00:39:05.833Z,6.26
2022-12-18T00:41:52.773Z,6.33
2022-12-18T00:44:20.837Z,6.28
2022-12-18T00:46:49.302Z,6.39
2022-12-18T00:49:20.411Z,6.43
2022-12-18T00:51:49.123Z,6.35
2022-12-18T00:54:17.805Z,6.41
2022-12-18T00:56:49.419Z,6.40
2022-12-18T00:59:19.188Z,6.40
2022-12-18T01:01:47.784Z,6.40
2022-12-18T01:04:16.061Z,6.51
2022-12-18T01:06:46.465Z,6.45
2022-12-18T01:09:14.708Z,6.54
2022-12-18T01:11:45.107Z,6.53
2022-12-18T01:14:12.631Z,6.56
2022-12-18T01:16:40.558Z,6.29
2022-12-18T01:19:08.583Z,6.37
2022-12-18T01:21:36.583Z,6.57
2022-12-18T01:24:05.883Z,6.64
2022-12-18T01:26:34.055Z,6.69
2022-12-18T01:29:01.611Z,6.69
2022-12-18T01:31:32.950Z,6.66
2022-12-18T01:34:05.472Z,6.70
2022-12-18T01:36:36.264Z,6.93
2022-12-18T01:39:07.896Z,6.81
2022-12-18T01:41:55.554Z,6.85
2022-12-18T01:44:54.031Z,6.93
2022-12-18T01:47:51.051Z,6.84
2022-12-18T01:50:29.943Z,6.84
2022-12-18T01:53:12.638Z,6.86
2022-12-18T01:56:00.708Z,6.97
2022-12-18T01:59:06.430Z,7.04
2022-12-18T02:01:34.942Z,7.12
2022-12-18T02:04:22.732Z,7.16
2022-12-18T02:07:10.561Z,7.14
2022-12-18T02:10:03.433Z,7.13
2022-12-18T02:13:21.987Z,6.96
2022-12-18T02:15:55.885Z,6.94
2022-12-18T02:18:33.384Z,6.98
2022-12-18T02:21:14.517Z,6.96
2022-12-18T02:23:59.358Z,6.96
2022-12-18T02:29:57.594Z,6.86
2022-12-18T02:32:30.117Z,7.12
2022-12-18T02:35:26.319Z,7.10
2022-12-18T02:37:57.788Z,6.83
2022-12-18T02:40:29.010Z,6.89
2022-12-18T02:43:03.032Z,6.95
2022-12-18T02:45:30.676Z,7.04
2022-12-18T02:48:00.397Z,7.06
2022-12-18T02:50:46.652Z,6.81
2022-12-18T02:53:25.330Z,6.78
2022-12-18T02:56:13.450Z,6.98
2022-12-18T02:59:07.762Z,7.00
2022-12-18T03:02:03.398Z,7.01
2022-12-18T03:04:50.630Z,6.83
2022-12-18T03:07:35.083Z,6.86
2022-12-18T03:10:03.587Z,7.07
2022-12-18T03:12:39.012Z,7.08
2022-12-18T03:15:19.697Z,7.16
2022-12-18T03:18:02.988Z,7.14
2022-12-18T03:20:35.455Z,6.82
2022-12-18T03:23:12.585Z,6.80
2022-12-18T03:25:44.001Z,6.70
2022-12-18T03:28:16.316Z,6.79
2022-12-18T03:30:47.194Z,6.78
2022-12-18T03:33:21.019Z,6.74
2022-12-18T03:35:51.686Z,6.81
2022-12-18T03:38:20.459Z,7.08
2022-12-18T03:41:04.235Z,7.15
2022-12-18T03:43:50.827Z,7.07
2022-12-18T03:46:29.558Z,6.94
2022-12-18T03:49:06.237Z,7.04
2022-12-18T03:51:39.808Z,7.05
2022-12-18T03:54:11.178Z,6.87
2022-12-18T03:56:48.570Z,6.95
2022-12-18T03:59:19.485Z,6.89
2022-12-18T04:01:50.870Z,6.78
2022-12-18T04:04:20.151Z,6.86
2022-12-18T04:06:50.174Z,6.98
2022-12-18T04:09:21.840Z,7.06
2022-12-18T04:11:50.369Z,6.80
2022-12-18T04:14:18.613Z,6.97
2022-12-18T04:16:50.230Z,6.97
2022-12-18T04:19:20.306Z,7.04
2022-12-18T04:21:52.161Z,7.01
2022-12-18T04:24:19.681Z,6.91
2022-12-18T04:27:02.046Z,6.92
2022-12-18T04:29:34.617Z,6.92
2022-12-18T04:32:02.628Z,6.93
2022-12-18T04:34:32.239Z,6.77
2022-12-18T04:37:00.076Z,6.75
2022-12-18T04:39:27.861Z,6.86
2022-12-18T04:41:58.857Z,6.85
2022-12-18T04:44:26.866Z,6.96
2022-12-18T04:46:54.785Z,6.82
2022-12-18T04:49:23.257Z,6.82
2022-12-18T04:51:50.885Z,6.79
2022-12-18T04:54:18.347Z,6.88
2022-12-18T04:56:45.894Z,6.98
2022-12-18T04:59:14.876Z,6.81
2022-12-18T05:01:42.516Z,6.79
2022-12-18T05:04:10.657Z,6.70
2022-12-18T05:06:38.362Z,6.72
2022-12-18T05:09:05.934Z,6.74
2022-12-18T05:11:33.707Z,6.73
2022-12-18T05:14:01.414Z,6.75
2022-12-18T05:16:29.021Z,6.72
2022-12-18T05:18:56.733Z,6.71
2022-12-18T05:21:24.356Z,6.79
2022-12-18T05:23:51.941Z,6.76
2022-12-18T05:26:20.047Z,6.76
2022-12-18T05:28:48.446Z,6.82
2022-12-18T05:31:16.240Z,6.76
2022-12-18T05:33:44.501Z,6.89
2022-12-18T05:36:12.803Z,6.70
2022-12-18T05:38:40.881Z,6.72
2022-12-18T05:41:09.401Z,6.77
2022-12-18T05:43:38.824Z,6.76
2022-12-18T05:46:08.696Z,6.62
2022-12-18T05:48:37.154Z,6.51
2022-12-18T05:51:11.482Z,6.60
2022-12-18T05:53:40.590Z,6.71
2022-12-18T05:56:12.116Z,6.76
2022-12-18T05:58:39.988Z,6.62
2022-12-18T06:01:20.143Z,6.45
2022-12-18T06:03:48.032Z,6.54
2022-12-18T06:06:23.226Z,6.56
2022-12-18T06:08:51.577Z,6.70
2022-12-18T06:11:22.203Z,6.70
2022-12-18T06:13:58.870Z,6.79
2022-12-18T06:16:29.495Z,6.60
2022-12-18T06:18:58.717Z,6.49
2022-12-18T06:21:28.237Z,6.39
2022-12-18T06:23:56.207Z,6.40
2022-12-18T06:26:28.114Z,6.42
2022-12-18T06:28:56.651Z,6.43
2022-12-18T06:31:24.420Z,6.53
2022-12-18T06:33:52.582Z,6.50
2022-12-18T06:36:21.172Z,6.50
2022-12-18T06:38:48.774Z,6.50
2022-12-18T06:41:19.438Z,6.49
2022-12-18T06:43:47.584Z,6.49
2022-12-18T06:46:16.217Z,6.29
2022-12-18T06:48:44.225Z,6.23
2022-12-18T06:51:18.048Z,6.30
2022-12-18T06:53:45.702Z,6.47
2022-12-18T06:56:13.208Z,6.46
2022-12-18T06:58:41.414Z,6.52
2022-12-18T07:01:12.481Z,6.57
2022-12-18T07:03:42.249Z,6.48
2022-12-18T07:06:19.189Z,6.34
2022-12-18T07:08:47.660Z,6.37
2022-12-18T07:11:16.268Z,6.50
2022-12-18T07:13:43.980Z,6.39
2022-12-18T07:16:24.400Z,6.54
2022-12-18T07:18:56.256Z,6.71
2022-12-18T07:21:25.603Z,6.71
2022-12-18T07:23:53.554Z,6.67
2022-12-18T07:26:22.986Z,6.65
2022-12-18T07:28:51.453Z,6.61
2022-12-18T07:31:22.822Z,6.62
2022-12-18T07:33:52.062Z,6.58
2022-12-18T07:36:20.483Z,6.84
2022-12-18T07:38:50.091Z,6.81
2022-12-18T07:41:18.183Z,6.89
2022-12-18T07:43:46.165Z,6.95
2022-12-18T07:46:15.216Z,6.98
2022-12-18T07:48:46.129Z,7.05
2022-12-18T07:51:19.499Z,6.98
2022-12-18T07:53:49.564Z,7.03
2022-12-18T07:56:30.084Z,7.03
2022-12-18T07:59:00.680Z,7.05
2022-12-18T08:01:29.077Z,7.08
2022-12-18T08:03:58.461Z,7.01
2022-12-18T08:06:26.057Z,7.22
2022-12-18T08:08:56.393Z,7.46
2022-12-18T08:11:26.010Z,7.58
2022-12-18T08:13:54.680Z,7.61
2022-12-18T08:16:23.428Z,7.62
2022-12-18T08:18:53.578Z,7.58
2022-12-18T08:21:24.822Z,7.57
2022-12-18T08:23:54.252Z,7.51
2022-12-18T08:26:22.818Z,7.30
2022-12-18T08:28:51.632Z,7.05
2022-12-18T08:31:20.026Z,7.20
2022-12-18T08:33:53.296Z,7.28
2022-12-18T08:36:22.291Z,7.37
2022-12-18T08:38:49.846Z,7.46
2022-12-18T08:41:19.185Z,7.71
2022-12-18T08:44:25.525Z,7.68
2022-12-18T08:46:53.428Z,7.83
2022-12-18T08:49:21.409Z,7.83
2022-12-18T08:51:49.300Z,7.61
2022-12-18T08:54:16.907Z,7.70
2022-12-18T08:56:44.775Z,7.72
2022-12-18T08:59:19.194Z,7.56
2022-12-18T09:01:48.356Z,7.88
2022-12-18T09:04:17.557Z,7.72
2022-12-18T09:06:45.203Z,7.76
2022-12-18T09:09:13.304Z,7.84
2022-12-18T09:11:40.942Z,7.76
2022-12-18T09:14:10.892Z,7.99
2022-12-18T09:16:38.605Z,8.18
2022-12-18T09:19:06.829Z,7.93
2022-12-18T09:21:42.183Z,8.18
2022-12-18T09:24:14.530Z,8.28
2022-12-18T09:26:43.214Z,8.45
2022-12-18T09:29:12.883Z,8.49
2022-12-18T09:31:40.811Z,8.34
2022-12-18T09:34:08.832Z,8.53
2022-12-18T09:36:36.331Z,8.74
2022-12-18T09:39:08.096Z,9.38
2022-12-18T09:41:47.272Z,8.83
2022-12-18T09:44:45.029Z,8.53
2022-12-18T09:47:18.572Z,9.16
2022-12-18T09:49:48.583Z,8.94
2022-12-18T09:52:31.625Z,9.50
2022-12-18T09:55:06.742Z,9.38
2022-12-18T09:57:40.678Z,9.42
2022-12-18T10:00:12.199Z,9.55
2022-12-18T10:02:40.892Z,9.52
2022-12-18T10:05:15.244Z,9.41
2022-12-18T10:07:54.406Z,8.95
2022-12-18T10:10:48.849Z,9.15
2022-12-18T10:13:27.983Z,9.59
2022-12-18T10:16:14.663Z,9.81
2022-12-18T10:19:01.068Z,9.95
2022-12-18T10:21:39.792Z,9.75
2022-12-18T10:24:13.201Z,9.54
2022-12-18T10:26:42.594Z,9.64
2022-12-18T10:29:15.744Z,9.53
2022-12-18T10:31:44.512Z,9.69
2022-12-18T10:34:13.050Z,9.47
2022-12-18T10:36:40.851Z,9.47
2022-12-18T10:39:23.771Z,9.72
2022-12-18T10:41:52.929Z,9.39
2022-12-18T10:44:24.920Z,9.31
2022-12-18T10:46:59.962Z,9.57
2022-12-18T10:49:30.669Z,9.84
2022-12-18T10:52:19.491Z,9.97
2022-12-18T10:55:04.617Z,9.94
2022-12-18T10:57:41.505Z,10.46
2022-12-18T11:00:25.563Z,10.48
2022-12-18T11:02:53.817Z,10.60
2022-12-18T11:05:34.478Z,10.31
2022-12-18T11:08:03.112Z,10.43
2022-12-18T11:10:38.460Z,10.49
2022-12-18T11:13:25.334Z,10.40
2022-12-18T11:16:00.428Z,10.40
2022-12-18T11:19:33.673Z,11.23
2022-12-18T11:22:05.257Z,11.20
2022-12-18T11:24:35.874Z,12.60
2022-12-18T11:27:05.991Z,13.61
2022-12-18T11:29:36.448Z,13.40
2022-12-18T11:32:16.379Z,12.70
2022-12-18T11:34:50.929Z,12.61
2022-12-18T11:37:20.386Z,12.92
2022-12-18T11:39:57.588Z,12.92
2022-12-18T11:42:45.800Z,12.32
2022-12-18T11:45:16.544Z,12.39
2022-12-18T11:48:13.849Z,12.97
2022-12-18T11:50:56.801Z,13.30
2022-12-18T11:53:27.230Z,13.38
2022-12-18T11:56:19.468Z,13.57
2022-12-18T11:58:56.171Z,13.70
2022-12-18T12:01:33.128Z,13.37
2022-12-18T12:04:07.610Z,13.26
2022-12-18T12:06:37.900Z,13.26
2022-12-18T12:09:27.635Z,13.33
2022-12-18T12:12:16.618Z,13.50
2022-12-18T12:14:44.046Z,13.24
2022-12-18T12:17:17.724Z,13.18
2022-12-18T12:20:14.116Z,14.28
2022-12-18T12:23:11.045Z,14.51
2022-12-18T12:25:40.778Z,14.54
2022-12-18T12:28:29.741Z,15.08
2022-12-18T12:31:04.190Z,15.93
2022-12-18T12:34:16.568Z,15.19
2022-12-18T12:37:07.830Z,14.93
2022-12-18T12:39:39.452Z,15.13
2022-12-18T12:42:54.678Z,15.38
2022-12-18T12:45:50.502Z,15.55
2022-12-18T12:48:41.320Z,15.62
2022-12-18T12:51:34.945Z,16.02
2022-12-18T12:54:05.686Z,16.10
2022-12-18T12:56:51.605Z,15.57
2022-12-18T12:59:50.841Z,15.31
2022-12-18T13:02:24.578Z,14.87
2022-12-18T13:05:20.854Z,15.38
2022-12-18T13:08:02.071Z,14.97
2022-12-18T13:10:34.345Z,14.93
2022-12-18T13:13:04.330Z,14.80
2022-12-18T13:15:38.564Z,14.94
2022-12-18T13:18:10.607Z,15.42
2022-12-18T13:20:52.447Z,15.74
2022-12-18T13:23:25.279Z,15.87
2022-12-18T13:26:27.929Z,15.69
2022-12-18T13:28:58.382Z,16.56
2022-12-18T13:31:41.785Z,16.59
2022-12-18T13:37:28.298Z,15.25
2022-12-18T13:39:55.921Z,15.61
2022-12-18T13:42:57.624Z,14.68
2022-12-18T13:45:41.505Z,14.19
2022-12-18T13:48:18.562Z,14.51
2022-12-18T13:50:50.923Z,13.57
2022-12-18T13:53:35.360Z,13.81
2022-12-18T13:56:05.137Z,13.62
2022-12-18T13:58:33.007Z,13.43
2022-12-18T14:01:03.055Z,13.29
2022-12-18T14:03:31.697Z,13.62
2022-12-18T14:06:07.634Z,14.10
2022-12-18T14:08:40.556Z,14.47
2022-12-18T14:11:14.210Z,14.98
2022-12-18T14:13:43.930Z,15.44
2022-12-18T14:16:16.139Z,15.11
2022-12-18T14:18:50.037Z,15.36
2022-12-18T14:21:26.530Z,15.64
2022-12-18T14:24:05.189Z,15.58
2022-12-18T14:26:34.305Z,15.51
2022-12-18T14:29:19.870Z,15.61
2022-12-18T14:32:05.718Z,14.55
2022-12-18T14:34:33.350Z,13.41
2022-12-18T14:37:01.053Z,12.92
2022-12-18T14:39:28.344Z,12.56
2022-12-18T14:41:56.197Z,12.09
2022-12-18T14:44:23.971Z,11.44
2022-12-18T14:46:52.138Z,11.47
2022-12-18T14:49:22.697Z,11.51
2022-12-18T14:51:57.966Z,11.44
2022-12-18T14:54:26.444Z,11.23
2022-12-18T14:56:56.471Z,10.81
2022-12-18T14:59:25.240Z,10.81
2022-12-18T15:02:11.955Z,10.82
2022-12-18T15:04:42.106Z,10.58
2022-12-18T15:07:11.928Z,10.56
2022-12-18T15:09:39.896Z,10.32
2022-12-18T15:12:20.849Z,10.23
2022-12-18T15:14:48.195Z,10.01
2022-12-18T15:17:24.252Z,9.77
2022-12-18T15:20:02.776Z,9.33
2022-12-18T15:22:31.671Z,9.29
2022-12-18T15:25:00.520Z,9.08
2022-12-18T15:27:35.814Z,9.05
2022-12-18T15:30:17.062Z,8.88
2022-12-18T15:32:45.810Z,8.73
2022-12-18T15:35:19.440Z,8.63
2022-12-18T15:37:47.567Z,8.41
2022-12-18T15:40:20.282Z,8.36
2022-12-18T15:43:07.699Z,8.34
2022-12-18T15:45:35.894Z,8.40
2022-12-18T15:48:04.335Z,8.35
2022-12-18T15:50:32.528Z,8.24
2022-12-18T15:52:59.960Z,8.03
2022-12-18T15:55:47.503Z,7.93
2022-12-18T15:58:15.349Z,7.89
2022-12-18T16:00:43.736Z,7.76
2022-12-18T16:03:14.271Z,7.75
2022-12-18T16:05:41.710Z,7.67
2022-12-18T16:08:09.426Z,7.62
2022-12-18T16:10:37.225Z,7.47
2022-12-18T16:13:04.994Z,7.56
2022-12-18T16:15:32.919Z,7.44
2022-12-18T16:18:00.246Z,7.32
2022-12-18T16:20:27.556Z,7.27
2022-12-18T16:22:55.334Z,7.21
2022-12-18T16:25:24.577Z,7.02
2022-12-18T16:27:52.575Z,7.07
2022-12-18T16:30:21.461Z,6.91
2022-12-18T16:32:49.172Z,6.93
2022-12-18T16:35:17.921Z,6.87
2022-12-18T16:37:45.658Z,6.78
2022-12-18T16:40:14.551Z,6.71
2022-12-18T16:42:43.700Z,6.72
2022-12-18T16:45:13.400Z,6.72
2022-12-18T16:47:41.291Z,6.69
2022-12-18T16:50:09.481Z,6.49
2022-12-18T16:52:38.414Z,6.54
2022-12-18T16:55:05.947Z,6.53
2022-12-18T16:57:33.832Z,6.50
2022-12-18T17:00:05.525Z,6.44
2022-12-18T17:02:34.043Z,6.33
2022-12-18T17:05:01.522Z,6.32
2022-12-18T17:07:29.411Z,6.27
2022-12-18T17:09:56.928Z,6.20
2022-12-18T17:12:24.362Z,6.24
2022-12-18T17:14:52.225Z,6.25
2022-12-18T17:17:21.800Z,6.13
2022-12-18T17:19:51.471Z,6.14
2022-12-18T17:22:19.089Z,6.13
2022-12-18T17:24:46.955Z,6.07
2022-12-18T17:27:15.226Z,6.10
2022-12-18T17:29:47.427Z,6.10
2022-12-18T17:32:16.590Z,6.05
2022-12-18T17:34:44.128Z,5.99
2022-12-18T17:37:11.628Z,5.87
2022-12-18T17:39:39.078Z,5.83
2022-12-18T17:42:06.964Z,5.75
2022-12-18T17:44:37.530Z,5.81
2022-12-18T17:47:06.137Z,5.69
2022-12-18T17:49:33.651Z,5.73
2022-12-18T17:52:01.516Z,5.65
2022-12-18T17:54:28.823Z,5.63
2022-12-18T17:56:57.048Z,5.66
2022-12-18T17:59:24.442Z,5.68
2022-12-18T18:01:51.808Z,5.63
2022-12-18T18:04:21.085Z,5.58
2022-12-18T18:06:48.422Z,5.43
2022-12-18T18:09:17.195Z,5.36
2022-12-18T18:12:03.783Z,5.38
2022-12-18T18:14:31.504Z,5.38
2022-12-18T18:17:01.152Z,5.35
2022-12-18T18:19:32.740Z,5.36
2022-12-18T18:22:00.508Z,5.35
2022-12-18T18:24:28.911Z,5.33
2022-12-18T18:26:56.580Z,5.28
2022-12-18T18:29:25.805Z,5.19
2022-12-18T18:31:54.305Z,5.18
2022-12-18T18:34:23.398Z,5.14
2022-12-18T18:36:51.389Z,5.10
2022-12-18T18:39:18.919Z,5.12
2022-12-18T18:41:48.636Z,4.98
2022-12-18T18:44:25.824Z,4.99
2022-12-18T18:46:58.126Z,5.01
2022-12-18T18:49:27.675Z,4.91
2022-12-18T18:51:56.323Z,4.89
2022-12-18T18:54:25.234Z,4.85
2022-12-18T18:59:40.758Z,4.96
2022-12-18T19:02:13.308Z,4.89
2022-12-18T19:04:45.661Z,4.77
2022-12-18T19:07:18.188Z,4.84
2022-12-18T19:10:03.569Z,4.77
2022-12-18T19:12:51.294Z,4.62
2022-12-18T19:15:18.746Z,4.55
2022-12-18T19:17:47.142Z,4.58
2022-12-18T19:20:15.499Z,4.60
2022-12-18T19:22:42.912Z,4.52
2022-12-18T19:25:11.305Z,4.45
2022-12-18T19:27:39.064Z,4.44
2022-12-18T19:30:07.050Z,4.44
2022-12-18T19:32:34.701Z,4.53
2022-12-18T19:35:05.498Z,4.62
2022-12-18T19:37:34.662Z,4.60
2022-12-18T19:40:06.111Z,4.52
2022-12-18T19:42:40.334Z,4.51
2022-12-18T19:45:08.264Z,4.40
2022-12-18T19:47:36.169Z,4.41
2022-12-18T19:50:03.732Z,4.18
2022-12-18T19:52:31.070Z,3.86
2022-12-18T19:54:58.369Z,3.56
2022-12-18T19:57:26.193Z,3.38
2022-12-18T19:59:53.474Z,3.25
2022-12-18T20:02:21.343Z,2.89
2022-12-18T20:04:50.114Z,2.57
2022-12-18T20:07:17.439Z,2.30
2022-12-18T20:09:45.294Z,2.34
2022-12-18T20:12:13.360Z,2.24
2022-12-18T20:14:40.753Z,2.19
2022-12-18T20:17:08.236Z,2.23
2022-12-18T20:19:36.576Z,2.44
2022-12-18T20:22:05.205Z,2.24
2022-12-18T20:24:32.546Z,2.36
2022-12-18T20:27:00.901Z,2.48
2022-12-18T20:29:28.193Z,2.47
2022-12-18T20:31:55.578Z,2.49
2022-12-18T20:34:22.864Z,2.27
2022-12-18T20:36:51.327Z,2.08
2022-12-18T20:39:18.663Z,2.24
2022-12-18T20:41:47.088Z,2.23
2022-12-18T20:44:22.320Z,2.18
2022-12-18T20:46:52.775Z,2.18
2022-12-18T20:49:20.138Z,2.14
2022-12-18T20:51:49.525Z,2.25
2022-12-18T20:54:17.203Z,2.36
2022-12-18T20:56:45.176Z,2.24
2022-12-18T20:59:12.939Z,2.08
2022-12-18T21:01:42.807Z,2.12
2022-12-18T21:04:18.146Z,2.08
2022-12-18T21:06:51.402Z,2.09
2022-12-18T21:09:21.058Z,2.18
2022-12-18T21:12:07.428Z,2.22
2022-12-18T21:14:35.390Z,2.26
2022-12-18T21:17:02.774Z,2.30
2022-12-18T21:19:30.291Z,2.39
2022-12-18T21:21:58.297Z,2.37
2022-12-18T21:24:26.325Z,2.38
2022-12-18T21:26:55.551Z,2.33
2022-12-18T21:29:24.321Z,2.30
2022-12-18T21:31:53.594Z,2.26
2022-12-18T21:34:22.731Z,2.22
2022-12-18T21:36:50.234Z,2.24
2022-12-18T21:39:18.281Z,2.24
2022-12-18T21:42:06.818Z,2.12
2022-12-18T21:44:38.827Z,2.10
2022-12-18T21:47:19.113Z,2.23
2022-12-18T21:49:52.069Z,2.18
2022-12-18T21:52:27.240Z,2.12
2022-12-18T21:55:03.265Z,2.04
2022-12-18T21:57:34.266Z,2.20
2022-12-18T22:00:03.154Z,2.16
2022-12-18T22:02:39.472Z,2.14
2022-12-18T22:05:07.280Z,2.11
2022-12-18T22:07:34.965Z,2.04
2022-12-18T22:10:02.407Z,1.98
2022-12-18T22:12:43.762Z,1.92
2022-12-18T22:15:18.652Z,2.06
2022-12-18T22:17:54.141Z,2.08
2022-12-18T22:20:27.863Z,2.08
2022-12-18T22:22:57.035Z,2.05
2022-12-18T22:25:24.479Z,1.98
2022-12-18T22:28:10.797Z,1.91
2022-12-18T22:30:38.053Z,1.88
2022-12-18T22:33:05.473Z,1.88
2022-12-18T22:35:32.729Z,1.87
2022-12-18T22:38:00.439Z,1.82
2022-12-18T22:40:28.885Z,1.98
2022-12-18T22:42:56.480Z,2.02
2022-12-18T22:45:24.758Z,1.94
2022-12-18T22:47:52.867Z,1.96
2022-12-18T22:50:20.336Z,1.92
2022-12-18T22:52:47.681Z,1.95
2022-12-18T22:55:15.511Z,1.99
2022-12-18T22:57:47.989Z,2.02
2022-12-18T23:00:21.965Z,2.01
2022-12-18T23:03:00.250Z,2.05
2022-12-18T23:05:29.574Z,2.15
2022-12-18T23:07:57.012Z,2.21
2022-12-18T23:10:24.669Z,2.22
2022-12-18T23:12:52.123Z,2.38
2022-12-18T23:15:22.873Z,2.36
2022-12-18T23:17:57.735Z,2.46
2022-12-18T23:20:25.942Z,2.57
2022-12-18T23:22:53.566Z,2.64
2022-12-18T23:25:20.990Z,2.72
2022-12-18T23:27:48.279Z,2.73
2022-12-18T23:30:15.848Z,2.76
2022-12-18T23:32:43.238Z,2.55
2022-12-18T23:35:10.530Z,2.38
2022-12-18T23:37:59.220Z,2.34
2022-12-18T23:40:27.837Z,2.37
2022-12-18T23:42:55.535Z,2.53
2022-12-18T23:45:23.235Z,2.45
2022-12-18T23:47:51.076Z,2.57
2022-12-18T23:50:18.676Z,2.31
2022-12-18T23:52:46.562Z,2.07
2022-12-18T23:55:13.827Z,1.79
2022-12-18T23:57:41.297Z,1.88
